Time;durP1;ratioP1;P1;durP2;ratioP2;P2;SDS_P1;SDS_P2;PMS_P1;PMS_P2;Temp;Humidity;BMP_temperature;BMP_pressure;BME280_temperature;BME280_humidity;BME280_pressure;Samples;Min_cycle;Max_cycle;Signal;HPM_P1;HPM_P2
2023/01/10 00:00:54;;;;;;;;;;;;;;;17.87;66.98;100008.20;2331569;74;22340;-75
2023/01/10 00:03:56;;;;;;;;;;;;;;;17.88;67.05;100019.72;2333981;75;52397;-74
2023/01/10 00:06:57;;;;;;;;;;;;;;;17.89;67.02;100031.59;2332079;75;50710;-75
2023/01/10 00:09:59;;;;;;;;;;;;;;;17.89;66.99;100029.42;2308539;76;52470;-74
2023/01/10 00:16:20;;;;;;;;;;;;;;;17.91;66.93;100033.56;2332480;76;22299;-73
2023/01/10 00:19:21;;;;;;;;;;;;;;;17.91;67.03;100038.92;2332203;76;50212;-74
2023/01/10 00:22:24;;;;;;;;;;;;;;;17.91;67.11;100037.58;2308114;75;51707;-73
2023/01/10 00:25:26;;;;;;;;;;;;;;;17.89;67.10;100039.61;2332162;76;51519;-74
2023/01/10 00:28:27;;;;;;;;;;;;;;;17.89;67.17;100050.32;2332226;76;49894;-73
2023/01/10 00:31:29;;;;;;;;;;;;;;;17.88;67.23;100043.81;2332184;76;50680;-74
2023/01/10 00:34:31;;;;;;;;;;;;;;;17.84;67.15;100040.70;2307561;76;51668;-74
2023/01/10 00:37:33;;;;;;;;;;;;;;;17.86;67.17;100044.02;2333941;75;50304;-75
2023/01/10 00:40:34;;;;;;;;;;;;;;;17.87;67.23;100057.70;2332244;76;51460;-73
2023/01/10 00:46:56;;;;;;;;;;;;;;;17.86;67.24;100062.75;2332627;76;22356;-74
2023/01/10 00:49:57;;;;;;;;;;;;;;;17.85;67.36;100066.44;2332231;76;50169;-75
2023/01/10 00:52:59;;;;;;;;;;;;;;;17.84;67.30;100072.30;2332056;76;50610;-74
2023/01/10 00:56:00;;;;;;;;;;;;;;;17.83;67.30;100069.32;2334315;75;51346;-75
2023/01/10 00:59:02;;;;;;;;;;;;;;;17.81;67.30;100078.56;2323060;75;52446;-76
2023/01/10 01:02:04;;;;;;;;;;;;;;;17.83;67.25;100075.19;2334167;75;51514;-74
2023/01/10 01:05:07;;;;;;;;;;;;;;;17.83;67.32;100082.70;2334079;75;51428;-75
2023/01/10 01:08:08;;;;;;;;;;;;;;;17.81;67.34;100090.61;2334166;74;50319;-74
2023/01/10 01:11:10;;;;;;;;;;;;;;;17.83;67.34;100097.42;2308015;76;52463;-75
2023/01/10 01:14:12;;;;;;;;;;;;;;;17.87;67.32;100099.19;2332271;76;51440;-74
2023/01/10 01:17:13;;;;;;;;;;;;;;;17.88;67.27;100107.56;2346728;75;50703;-77
2023/01/10 01:20:15;;;;;;;;;;;;;;;17.88;67.36;100117.41;2374779;74;50292;-75
2023/01/10 01:23:16;;;;;;;;;;;;;;;17.91;67.30;100125.91;2346806;75;52283;-74
2023/01/10 01:26:18;;;;;;;;;;;;;;;17.91;67.31;100131.26;2370733;74;50289;-76
2023/01/10 01:29:20;;;;;;;;;;;;;;;17.87;67.31;100138.00;2307803;76;49968;-75
2023/01/10 01:32:21;;;;;;;;;;;;;;;17.80;67.51;100143.79;2308376;76;51491;-75
2023/01/10 01:35:24;;;;;;;;;;;;;;;17.78;67.87;100151.17;2307879;76;51682;-76
2023/01/10 01:38:25;;;;;;;;;;;;;;;17.76;67.80;100162.56;2332365;76;50287;-75
2023/01/10 01:44:48;;;;;;;;;;;;;;;17.79;67.61;100180.43;2332486;76;22384;-75
2023/01/10 01:47:54;;;;;;;;;;;;;;;17.80;67.50;100186.13;2329561;74;50354;-75
2023/01/10 01:51:03;;;;;;;;;;;;;;;17.80;67.50;100195.97;2334063;76;52343;-76
2023/01/10 01:54:02;;;;;;;;;;;;;;;17.79;67.48;100187.13;2332617;74;22400;-75
2023/01/10 01:57:05;;;;;;;;;;;;;;;17.76;67.80;100196.84;2332374;76;50352;-75
2023/01/10 02:00:09;;;;;;;;;;;;;;;17.75;67.74;100193.00;2332454;76;50843;-75
2023/01/10 02:03:10;;;;;;;;;;;;;;;17.76;67.74;100192.00;2307563;76;51706;-77
2023/01/10 02:06:12;;;;;;;;;;;;;;;17.79;67.58;100200.50;2332226;76;51434;-75
2023/01/10 02:09:33;;;;;;;;;;;;;;;17.77;67.61;100211.86;2332387;76;51413;-75
2023/01/10 02:12:35;;;;;;;;;;;;;;;17.79;67.55;100216.56;2331218;74;50465;-77
2023/01/10 02:15:37;;;;;;;;;;;;;;;17.80;67.62;100215.56;2308166;76;52474;-75
2023/01/10 02:18:39;;;;;;;;;;;;;;;17.82;67.53;100214.02;2332163;76;50365;-75
2023/01/10 02:21:42;;;;;;;;;;;;;;;17.82;67.54;100221.53;2332225;76;50839;-75
2023/01/10 02:25:02;;;;;;;;;;;;;;;17.84;67.49;100223.52;2331838;75;51765;-74
2023/01/10 02:28:06;;;;;;;;;;;;;;;17.84;67.44;100232.88;2307755;76;52644;-75
2023/01/10 02:31:25;;;;;;;;;;;;;;;17.85;67.38;100232.37;2331578;75;50301;-75
2023/01/10 02:34:38;;;;;;;;;;;;;;;17.83;67.46;100237.10;2332120;76;51518;-75
2023/01/10 02:37:47;;;;;;;;;;;;;;;17.79;67.52;100235.77;2332145;74;50331;-75
2023/01/10 02:40:50;;;;;;;;;;;;;;;17.79;67.83;100239.79;2307815;76;50615;-75
2023/01/10 02:43:53;;;;;;;;;;;;;;;17.81;67.99;100248.50;2331993;76;51555;-76
2023/01/10 02:46:55;;;;;;;;;;;;;;;17.82;67.91;100252.81;2332142;76;50427;-75
2023/01/10 02:49:57;;;;;;;;;;;;;;;17.78;67.76;100247.51;2349455;75;51416;-75
2023/01/10 02:52:59;;;;;;;;;;;;;;;17.72;68.00;100257.60;2347765;75;51105;-76
2023/01/10 02:56:19;;;;;;;;;;;;;;;17.72;67.89;100257.60;2372366;75;50762;-76
2023/01/10 02:59:22;;;;;;;;;;;;;;;17.71;67.91;100259.45;2356547;75;51486;-75
2023/01/10 03:02:34;;;;;;;;;;;;;;;17.72;67.88;100269.64;2368087;74;51442;-75
2023/01/10 03:05:41;;;;;;;;;;;;;;;17.73;67.80;100267.31;2340694;74;52350;-75
2023/01/10 03:08:50;;;;;;;;;;;;;;;17.73;67.91;100271.33;2365870;73;50513;-75
2023/01/10 03:11:53;;;;;;;;;;;;;;;17.72;67.87;100270.47;2365917;75;51526;-76
2023/01/10 03:14:55;;;;;;;;;;;;;;;17.72;67.99;100287.04;2365837;75;50449;-73
2023/01/10 03:17:57;;;;;;;;;;;;;;;17.71;67.93;100294.24;2340757;75;51130;-74
2023/01/10 03:20:59;;;;;;;;;;;;;;;17.68;67.88;100297.30;2365893;75;50479;-73
2023/01/10 03:24:02;;;;;;;;;;;;;;;17.68;67.86;100305.32;2355659;75;51446;-74
2023/01/10 03:27:08;;;;;;;;;;;;;;;17.74;67.79;100311.77;2332072;75;51462;-74
2023/01/10 03:30:12;;;;;;;;;;;;;;;17.76;67.75;100318.59;2342850;75;52261;-73
2023/01/10 03:33:15;;;;;;;;;;;;;;;17.80;67.74;100328.44;2331449;76;51507;-74
2023/01/10 03:36:19;;;;;;;;;;;;;;;17.81;67.58;100338.15;2332192;76;51504;-74
2023/01/10 03:39:39;;;;;;;;;;;;;;;17.81;67.51;100341.65;2332136;76;51562;-74
2023/01/10 03:46:10;;;;;;;;;;;;;;;17.80;67.43;100353.86;2332327;76;24446;-75
2023/01/10 03:49:11;;;;;;;;;;;;;;;17.75;67.81;100361.59;2331550;76;51625;-75
2023/01/10 03:52:14;;;;;;;;;;;;;;;17.73;68.26;100352.94;2359741;75;50691;-75
2023/01/10 03:55:17;;;;;;;;;;;;;;;17.76;68.06;100363.27;2347486;75;52912;-74
2023/01/10 03:58:20;;;;;;;;;;;;;;;17.73;67.94;100368.48;2362904;74;51461;-75
2023/01/10 04:01:22;;;;;;;;;;;;;;;17.71;68.04;100377.19;2332341;76;50736;-75
2023/01/10 04:04:24;;;;;;;;;;;;;;;17.75;67.96;100387.86;2332237;76;51461;-74
2023/01/10 04:07:25;;;;;;;;;;;;;;;17.74;68.01;100386.19;2308094;76;49596;-76
2023/01/10 04:10:28;;;;;;;;;;;;;;;17.77;68.08;100393.84;2332142;76;50201;-74
2023/01/10 04:13:30;;;;;;;;;;;;;;;17.79;68.02;100399.02;2331991;76;51478;-76
2023/01/10 04:16:31;;;;;;;;;;;;;;;17.76;68.15;100408.25;2332250;76;50652;-74
2023/01/10 04:19:33;;;;;;;;;;;;;;;17.78;68.08;100420.12;2307742;76;52602;-74
2023/01/10 04:22:35;;;;;;;;;;;;;;;17.78;68.12;100426.30;2332261;76;51487;-75
2023/01/10 04:25:36;;;;;;;;;;;;;;;17.76;68.18;100428.83;2333840;75;51573;-74
2023/01/10 04:28:38;;;;;;;;;;;;;;;17.74;68.22;100441.05;2374672;74;51399;-74
2023/01/10 04:31:39;;;;;;;;;;;;;;;17.73;68.17;100451.44;2305425;76;50300;-74
2023/01/10 04:34:41;;;;;;;;;;;;;;;17.73;68.01;100453.28;2332159;76;50767;-77
2023/01/10 04:37:43;;;;;;;;;;;;;;;17.76;67.82;100456.93;2332416;75;50238;-74
2023/01/10 04:40:45;;;;;;;;;;;;;;;17.77;67.65;100462.59;2332376;76;51575;-74
2023/01/10 04:43:48;;;;;;;;;;;;;;;17.76;67.64;100468.97;2305413;76;52400;-74
2023/01/10 04:46:49;;;;;;;;;;;;;;;17.72;67.72;100474.35;2332508;75;22373;-74
2023/01/10 04:49:51;;;;;;;;;;;;;;;17.68;68.10;100481.92;2332314;76;50238;-74
2023/01/10 04:52:53;;;;;;;;;;;;;;;17.69;68.20;100480.89;2332096;76;50641;-75
2023/01/10 04:55:54;;;;;;;;;;;;;;;17.71;68.15;100488.75;2305667;76;51201;-74
2023/01/10 04:58:56;;;;;;;;;;;;;;;17.72;68.05;100503.27;2360916;74;50610;-74
2023/01/10 05:01:57;;;;;;;;;;;;;;;17.71;68.05;100510.98;2396353;74;50442;-74
2023/01/10 05:04:59;;;;;;;;;;;;;;;17.73;67.90;100521.52;2401291;74;50265;-77
2023/01/10 05:08:01;;;;;;;;;;;;;;;17.71;67.92;100533.73;2374319;74;51667;-73
2023/01/10 05:11:02;;;;;;;;;;;;;;;17.74;67.91;100538.72;2369435;73;50769;-74
2023/01/10 05:14:04;;;;;;;;;;;;;;;17.78;67.84;100541.89;2332227;76;50595;-77
2023/01/10 05:17:05;;;;;;;;;;;;;;;17.78;68.08;100540.55;2332598;76;51521;-74
2023/01/10 05:20:07;;;;;;;;;;;;;;;17.76;67.84;100548.75;2309256;76;51690;-74
2023/01/10 05:23:09;;;;;;;;;;;;;;;17.75;68.16;100560.47;2343225;75;53832;-74
2023/01/10 05:26:12;;;;;;;;;;;;;;;17.76;68.12;100560.78;2375383;74;50894;-75
2023/01/10 05:29:14;;;;;;;;;;;;;;;17.77;68.11;100572.31;2373395;74;50667;-75
2023/01/10 05:32:15;;;;;;;;;;;;;;;17.76;68.11;100581.38;2347699;75;51259;-75
2023/01/10 05:35:17;;;;;;;;;;;;;;;17.74;68.33;100588.23;2375562;75;50604;-75
2023/01/10 05:38:19;;;;;;;;;;;;;;;17.74;68.23;100586.06;2375517;74;50220;-76
2023/01/10 05:41:20;;;;;;;;;;;;;;;17.76;67.97;100591.56;2365316;75;50240;-74
2023/01/10 05:44:22;;;;;;;;;;;;;;;17.78;68.04;100600.77;2324313;74;51669;-74
2023/01/10 05:47:24;;;;;;;;;;;;;;;17.79;67.72;100603.75;2375315;74;51481;-74
2023/01/10 05:50:25;;;;;;;;;;;;;;;17.78;67.51;100610.96;2375231;74;50267;-74
2023/01/10 05:53:27;;;;;;;;;;;;;;;17.79;67.55;100618.47;2374716;74;50435;-75
2023/01/10 05:56:29;;;;;;;;;;;;;;;17.74;67.50;100617.66;2331986;75;52518;-74
2023/01/10 05:59:30;;;;;;;;;;;;;;;17.71;67.50;100620.70;2342288;73;50598;-74
2023/01/10 06:02:32;;;;;;;;;;;;;;;17.73;67.39;100623.22;2377620;74;50636;-76
2023/01/10 06:05:33;;;;;;;;;;;;;;;17.72;67.34;100625.03;2373326;73;50346;-77
2023/01/10 06:08:35;;;;;;;;;;;;;;;17.70;67.34;100637.78;2349625;75;51707;-76
2023/01/10 06:11:37;;;;;;;;;;;;;;;17.71;67.12;100643.96;2330793;75;50331;-76
2023/01/10 06:14:39;;;;;;;;;;;;;;;17.68;67.25;100648.34;2323902;75;51557;-76
2023/01/10 06:17:41;;;;;;;;;;;;;;;17.67;67.31;100660.86;2331859;76;50629;-76
2023/01/10 06:20:42;;;;;;;;;;;;;;;17.72;67.20;100673.72;2307899;75;52360;-76
2023/01/10 06:23:44;;;;;;;;;;;;;;;17.75;67.03;100681.38;2331970;76;51538;-77
2023/01/10 06:26:45;;;;;;;;;;;;;;;17.76;66.96;100679.05;2344494;74;50701;-76
2023/01/10 06:29:47;;;;;;;;;;;;;;;17.75;66.93;100680.05;2317855;75;50421;-76
2023/01/10 06:32:49;;;;;;;;;;;;;;;17.76;68.37;100692.44;2310056;75;51707;-76
2023/01/10 06:35:50;;;;;;;;;;;;;;;17.73;68.30;100696.30;2371777;73;51386;-77
2023/01/10 06:38:52;;;;;;;;;;;;;;;17.75;68.06;100704.99;2374713;74;51487;-77
2023/01/10 06:41:53;;;;;;;;;;;;;;;17.76;68.75;100709.83;2372527;75;50244;-78
2023/01/10 06:44:55;;;;;;;;;;;;;;;17.73;68.76;100711.53;2346981;75;52340;-76
2023/01/10 06:47:57;;;;;;;;;;;;;;;17.74;68.52;100727.91;2331545;75;50268;-76
2023/01/10 06:50:58;;;;;;;;;;;;;;;17.74;68.72;100741.28;2332915;75;50052;-76
2023/01/10 06:54:00;;;;;;;;;;;;;;;17.72;68.78;100738.77;2333797;75;50272;-76
2023/01/10 06:57:01;;;;;;;;;;;;;;;17.74;68.68;100747.97;2315513;73;51816;-76
2023/01/10 07:00:05;;;;;;;;;;;;;;;17.72;68.66;100755.34;2355585;73;51472;-76
2023/01/10 07:03:06;;;;;;;;;;;;;;;17.71;68.46;100757.19;2340669;74;50328;-78
2023/01/10 07:06:10;;;;;;;;;;;;;;;17.70;68.34;100765.38;2372397;74;51534;-76
2023/01/10 07:09:12;;;;;;;;;;;;;;;17.68;68.29;100773.59;2328592;75;52472;-76
2023/01/10 07:12:14;;;;;;;;;;;;;;;17.68;68.26;100756.71;2329628;75;51565;-76
2023/01/10 07:15:15;;;;;;;;;;;;;;;17.67;68.25;100769.74;2335284;74;51431;-75
2023/01/10 07:18:17;;;;;;;;;;;;;;;17.68;68.12;100776.78;2334407;75;51402;-75
2023/01/10 07:21:19;;;;;;;;;;;;;;;17.67;67.85;100787.97;2307699;76;51646;-74
2023/01/10 07:24:20;;;;;;;;;;;;;;;17.66;67.85;100786.82;2331836;76;51318;-74
2023/01/10 07:27:22;;;;;;;;;;;;;;;17.75;67.56;100795.98;2331866;75;51440;-75
2023/01/10 07:30:24;;;;;;;;;;;;;;;17.79;67.39;100799.14;2382527;74;51305;-75
2023/01/10 07:33:26;;;;;;;;;;;;;;;17.84;67.16;100807.51;2345177;74;51751;-75
2023/01/10 07:36:28;;;;;;;;;;;;;;;17.86;67.03;100812.19;2345726;74;52476;-75
2023/01/10 07:39:29;;;;;;;;;;;;;;;17.84;67.02;100820.89;2369360;74;52198;-75
2023/01/10 07:42:31;;;;;;;;;;;;;;;17.83;67.00;100821.41;2367731;75;51498;-74
2023/01/10 07:45:33;;;;;;;;;;;;;;;17.83;66.93;100831.28;2340439;75;52484;-74
2023/01/10 07:48:35;;;;;;;;;;;;;;;17.86;66.81;100835.45;2365731;74;51610;-75
2023/01/10 07:51:37;;;;;;;;;;;;;;;17.79;66.89;100843.30;2365575;75;51432;-74
2023/01/10 07:54:38;;;;;;;;;;;;;;;17.71;67.15;100852.70;2365580;74;51405;-75
2023/01/10 07:57:40;;;;;;;;;;;;;;;17.66;67.29;100850.53;2331597;75;52313;-75
2023/01/10 08:00:42;;;;;;;;;;;;;;;17.69;67.23;100860.05;2325754;75;50433;-75
2023/01/10 08:03:43;;;;;;;;;;;;;;;17.79;66.91;100871.40;2323117;76;50215;-75
2023/01/10 08:06:45;;;;;;;;;;;;;;;17.83;66.75;100873.59;2328289;76;50734;-75
2023/01/10 08:09:46;;;;;;;;;;;;;;;17.85;66.59;100882.77;2305197;76;51127;-76
2023/01/10 08:12:49;;;;;;;;;;;;;;;17.81;66.70;100886.82;2331552;76;50381;-75
2023/01/10 08:15:51;;;;;;;;;;;;;;;17.76;66.80;100887.30;2331658;76;51414;-75
2023/01/10 08:18:53;;;;;;;;;;;;;;;17.75;66.79;100896.83;2329725;76;51616;-75
2023/01/10 08:21:54;;;;;;;;;;;;;;;17.79;66.57;100894.15;2305202;76;50071;-76
2023/01/10 08:24:56;;;;;;;;;;;;;;;17.76;66.51;100899.85;2329518;76;50266;-75
2023/01/10 08:27:57;;;;;;;;;;;;;;;17.74;66.62;100905.88;2329670;74;50306;-75
2023/01/10 08:31:01;;;;;;;;;;;;;;;17.66;66.86;100919.28;2327672;74;50624;-76
2023/01/10 08:34:02;;;;;;;;;;;;;;;17.64;66.96;100915.42;2293007;75;50680;-76
2023/01/10 08:37:04;;;;;;;;;;;;;;;17.71;66.78;100911.58;2321560;75;51505;-76
2023/01/10 08:40:06;;;;;;;;;;;;;;;17.79;66.49;100910.20;2321571;74;51566;-75
2023/01/10 08:43:09;;;;;;;;;;;;;;;17.84;66.33;100926.62;2321740;74;50423;-76
2023/01/10 08:46:10;;;;;;;;;;;;;;;17.87;66.16;100924.11;2295576;76;51493;-76
2023/01/10 08:49:12;;;;;;;;;;;;;;;17.83;66.24;100938.34;2320910;75;51468;-75
2023/01/10 08:52:14;;;;;;;;;;;;;;;17.83;66.23;100945.04;2322183;74;51514;-76
2023/01/10 08:55:15;;;;;;;;;;;;;;;17.78;66.35;100948.19;2292647;77;51399;-76
2023/01/10 08:58:17;;;;;;;;;;;;;;;17.78;66.31;100944.17;2349347;74;50081;-75
2023/01/10 09:01:18;;;;;;;;;;;;;;;17.76;66.30;100942.67;2371468;74;51415;-75
2023/01/10 09:04:20;;;;;;;;;;;;;;;17.67;66.59;100951.20;2365328;74;50727;-75
2023/01/10 09:07:22;;;;;;;;;;;;;;;17.61;66.68;100958.07;2365562;74;52147;-75
2023/01/10 09:10:23;;;;;;;;;;;;;;;17.67;66.65;100962.41;2340342;75;52571;-75
2023/01/10 09:13:25;;;;;;;;;;;;;;;17.72;66.53;100961.41;2368086;73;51529;-75
2023/01/10 09:16:26;;;;;;;;;;;;;;;17.86;66.12;100966.11;2365689;74;50257;-75
2023/01/10 09:19:28;;;;;;;;;;;;;;;17.95;65.79;100974.44;2367744;73;50781;-76
2023/01/10 09:22:30;;;;;;;;;;;;;;;17.98;65.69;100977.28;2340260;75;51647;-76
2023/01/10 09:25:31;;;;;;;;;;;;;;;17.99;65.56;100976.29;2367791;74;52087;-76
2023/01/10 09:28:33;;;;;;;;;;;;;;;17.99;65.52;100974.44;2315032;75;51409;-77
2023/01/10 09:31:34;;;;;;;;;;;;;;;17.95;65.58;100974.44;2400470;74;51420;-76
2023/01/10 09:34:36;;;;;;;;;;;;;;;17.89;65.73;100981.83;2371806;74;50930;-76
2023/01/10 09:37:37;;;;;;;;;;;;;;;17.82;65.86;100986.17;2395861;74;50229;-76
2023/01/10 09:40:41;;;;;;;;;;;;;;;17.81;65.92;100992.55;2395727;73;50251;-76
2023/01/10 09:44:01;;;;;;;;;;;;;;;17.73;66.20;100990.69;2387105;74;50166;-75
2023/01/10 09:47:16;;;;;;;;;;;;;;;17.75;66.15;101001.20;2372616;74;52752;-76
2023/01/10 09:50:25;;;;;;;;;;;;;;;17.84;65.87;101004.25;2395706;73;50348;-76
2023/01/10 09:53:27;;;;;;;;;;;;;;;17.88;65.73;101006.94;2395777;73;51463;-76
2023/01/10 09:56:29;;;;;;;;;;;;;;;17.85;65.75;101005.91;2379357;74;51577;-76
2023/01/10 09:59:32;;;;;;;;;;;;;;;17.80;65.89;101009.59;2345588;74;51401;-75
2023/01/10 10:02:34;;;;;;;;;;;;;;;17.79;65.86;101010.58;2336617;75;50277;-75
2023/01/10 10:05:36;;;;;;;;;;;;;;;17.73;65.98;101012.09;2331900;76;51591;-75
2023/01/10 10:08:37;;;;;;;;;;;;;;;17.67;66.17;101012.75;2333610;76;51580;-76
2023/01/10 10:11:44;;;;;;;;;;;;;;;17.63;66.30;101008.25;2307703;76;51699;-75
2023/01/10 10:14:50;;;;;;;;;;;;;;;17.59;66.40;101010.09;2331700;75;51615;-75
2023/01/10 10:18:12;;;;;;;;;;;;;;;17.57;66.48;101007.59;2307336;76;51279;-75
2023/01/10 10:21:15;;;;;;;;;;;;;;;17.62;66.32;101010.61;2332111;75;50399;-75
2023/01/10 10:24:30;;;;;;;;;;;;;;;17.71;66.14;101022.64;2306948;76;51915;-75
2023/01/10 10:27:37;;;;;;;;;;;;;;;17.88;65.64;101010.09;2345088;75;50282;-76
2023/01/10 10:30:58;;;;;;;;;;;;;;;17.97;65.23;101009.91;2363594;73;51537;-75
2023/01/10 10:34:01;;;;;;;;;;;;;;;18.00;65.09;101021.61;2395498;74;51623;-75
2023/01/10 10:37:11;;;;;;;;;;;;;;;18.00;65.09;101022.12;2372285;74;52472;-75
2023/01/10 10:40:17;;;;;;;;;;;;;;;17.99;65.04;101021.80;2395777;74;51519;-76
2023/01/10 10:43:24;;;;;;;;;;;;;;;18.02;64.96;101029.49;2395628;74;52262;-76
2023/01/10 10:46:26;;;;;;;;;;;;;;;17.96;65.04;101043.57;2395835;74;51526;-76
2023/01/10 10:49:38;;;;;;;;;;;;;;;17.94;65.10;101043.72;2372440;74;51145;-76
2023/01/10 10:52:39;;;;;;;;;;;;;;;17.84;65.32;101043.89;2395584;74;50650;-77
2023/01/10 10:55:41;;;;;;;;;;;;;;;17.78;65.55;101043.72;2395796;73;50688;-76
2023/01/10 10:58:43;;;;;;;;;;;;;;;17.76;65.60;101051.08;2344103;74;51442;-76
2023/01/10 11:01:48;;;;;;;;;;;;;;;17.87;65.24;101041.38;2307518;76;51249;-76
2023/01/10 11:04:50;;;;;;;;;;;;;;;17.91;65.15;101061.98;2331713;76;50634;-76
2023/01/10 11:07:52;;;;;;;;;;;;;;;17.91;65.09;101072.18;2331774;75;51592;-76
2023/01/10 11:10:54;;;;;;;;;;;;;;;17.90;65.12;101073.67;2331879;75;51413;-76
2023/01/10 11:13:57;;;;;;;;;;;;;;;17.83;65.18;101067.66;2307347;75;52497;-76
2023/01/10 11:17:00;;;;;;;;;;;;;;;17.79;65.32;101064.11;2331892;76;50421;-76
2023/01/10 11:20:04;;;;;;;;;;;;;;;17.78;65.41;101065.13;2331705;75;50069;-76
2023/01/10 11:23:05;;;;;;;;;;;;;;;17.76;65.45;101044.38;2331624;76;51580;-76
2023/01/10 11:26:08;;;;;;;;;;;;;;;17.70;65.63;101039.68;2307517;76;51780;-76
2023/01/10 11:29:23;;;;;;;;;;;;;;;17.66;65.81;101038.36;2374883;74;50237;-76
2023/01/10 11:32:26;;;;;;;;;;;;;;;17.68;65.74;101042.55;2372810;73;51550;-77
2023/01/10 11:35:30;;;;;;;;;;;;;;;17.76;65.51;101048.39;2368766;74;51463;-76
2023/01/10 11:38:31;;;;;;;;;;;;;;;17.90;65.16;101065.64;2340304;75;51253;-76
2023/01/10 11:41:35;;;;;;;;;;;;;;;18.02;64.78;101066.47;2365615;74;51551;-76
2023/01/10 11:44:37;;;;;;;;;;;;;;;18.06;64.63;101055.77;2365304;74;50698;-76
2023/01/10 11:47:39;;;;;;;;;;;;;;;18.08;64.54;101051.56;2367834;74;50674;-76
2023/01/10 11:50:41;;;;;;;;;;;;;;;18.09;64.44;101057.78;2340501;75;51191;-76
2023/01/10 11:53:43;;;;;;;;;;;;;;;18.09;64.38;101065.30;2365306;74;51498;-76
2023/01/10 11:56:47;;;;;;;;;;;;;;;18.10;64.32;101069.64;2346203;74;50691;-77
2023/01/10 11:59:52;;;;;;;;;;;;;;;18.03;64.48;101078.88;2341735;75;50689;-76
2023/01/10 12:02:53;;;;;;;;;;;;;;;18.02;64.46;101073.16;2371044;74;51502;-76
2023/01/10 12:05:56;;;;;;;;;;;;;;;17.95;64.61;101077.52;2365627;74;50641;-76
2023/01/10 12:08:58;;;;;;;;;;;;;;;17.83;65.00;101081.56;2365619;75;50314;-76
2023/01/10 12:12:01;;;;;;;;;;;;;;;17.84;65.05;101081.88;2365532;74;49952;-76
2023/01/10 12:15:22;;;;;;;;;;;;;;;17.93;64.79;101076.88;2367206;75;52358;-76
2023/01/10 12:18:24;;;;;;;;;;;;;;;17.98;64.60;101079.02;2367952;74;51483;-77
2023/01/10 12:21:27;;;;;;;;;;;;;;;17.99;64.57;101081.54;2367799;75;50716;-77
2023/01/10 12:24:35;;;;;;;;;;;;;;;17.96;64.55;101071.17;2367599;74;51690;-77
2023/01/10 12:27:37;;;;;;;;;;;;;;;17.95;64.59;101064.13;2348751;73;51742;-77
2023/01/10 12:30:43;;;;;;;;;;;;;;;17.90;64.70;101066.47;2397224;74;51445;-77
2023/01/10 12:33:46;;;;;;;;;;;;;;;17.83;64.88;101063.65;2397621;74;51532;-77
2023/01/10 12:37:02;;;;;;;;;;;;;;;17.77;65.04;101068.80;2397379;73;51635;-77
2023/01/10 12:40:07;;;;;;;;;;;;;;;17.76;65.19;101077.33;2361996;74;51732;-77
2023/01/10 12:46:34;;;;;;;;;;;;;;;17.78;65.12;101090.56;2363202;75;22362;-77
2023/01/10 12:49:39;;;;;;;;;;;;;;;17.89;64.88;101094.77;2362425;74;50709;-77
2023/01/10 12:52:44;;;;;;;;;;;;;;;17.97;64.66;101098.78;2334998;75;51610;-77
2023/01/10 12:55:45;;;;;;;;;;;;;;;18.05;64.32;101101.45;2362290;75;22465;-77
2023/01/10 12:58:48;;;;;;;;;;;;;;;18.03;64.31;101101.63;2338466;75;51053;-77
2023/01/10 13:01:52;;;;;;;;;;;;;;;18.09;64.17;101104.64;2332586;76;51549;-77
2023/01/10 13:04:55;;;;;;;;;;;;;;;18.06;64.13;101113.34;2331541;74;51471;-77
2023/01/10 13:08:00;;;;;;;;;;;;;;;18.05;64.13;101110.31;2332581;76;51660;-76
2023/01/10 13:11:01;;;;;;;;;;;;;;;18.03;64.17;101124.39;2331366;76;50410;-76
2023/01/10 13:14:03;;;;;;;;;;;;;;;17.94;64.37;101121.37;2331030;75;50774;-76
2023/01/10 13:17:12;;;;;;;;;;;;;;;17.88;64.59;101123.39;2373151;74;51113;-74
2023/01/10 13:20:18;;;;;;;;;;;;;;;17.79;64.83;101133.23;2339456;75;50654;-75
2023/01/10 13:23:29;;;;;;;;;;;;;;;17.77;64.96;101141.89;2338561;75;50305;-75
2023/01/10 13:26:49;;;;;;;;;;;;;;;17.83;64.83;101151.16;2330867;75;51433;-75
2023/01/10 13:29:53;;;;;;;;;;;;;;;17.95;64.47;101143.11;2299114;76;52613;-75
2023/01/10 13:32:59;;;;;;;;;;;;;;;18.03;64.18;101137.78;2331250;75;22206;-74
2023/01/10 13:36:08;;;;;;;;;;;;;;;18.06;64.10;101147.32;2334021;76;50302;-74
2023/01/10 13:39:26;;;;;;;;;;;;;;;18.05;64.02;101149.14;2331475;76;50877;-74
2023/01/10 13:45:48;;;;;;;;;;;;;;;17.99;64.13;101153.00;2331434;76;22720;-76
2023/01/10 13:48:51;;;;;;;;;;;;;;;17.97;64.15;101157.69;2353892;75;50398;-76
2023/01/10 13:52:11;;;;;;;;;;;;;;;17.92;64.28;101158.17;2330800;76;51520;-76
2023/01/10 13:55:23;;;;;;;;;;;;;;;17.88;64.42;101156.85;2304855;76;52424;-75
2023/01/10 14:05:17;;;;;;;;;;;;;;;17.90;64.44;101158.84;2366098;75;24471;-75
2023/01/10 14:08:19;;;;;;;;;;;;;;;17.99;64.13;101156.52;2340495;75;51178;-75
2023/01/10 14:11:21;;;;;;;;;;;;;;;18.03;63.99;101155.19;2365718;75;51543;-75
2023/01/10 14:14:33;;;;;;;;;;;;;;;18.05;63.84;101157.17;2365515;75;50771;-75
2023/01/10 14:17:35;;;;;;;;;;;;;;;18.05;63.82;101157.17;2365778;74;50761;-74
2023/01/10 14:20:37;;;;;;;;;;;;;;;18.08;63.74;101164.54;2340460;75;52434;-76
2023/01/10 14:23:39;;;;;;;;;;;;;;;18.02;63.85;101170.90;2365436;74;51428;-75
2023/01/10 14:26:43;;;;;;;;;;;;;;;17.99;63.92;101174.42;2362118;75;50170;-76
2023/01/10 14:29:49;;;;;;;;;;;;;;;17.94;64.01;101169.56;2349692;73;50323;-75
2023/01/10 14:32:51;;;;;;;;;;;;;;;17.87;64.21;101165.87;2338338;75;51543;-76
2023/01/10 14:35:57;;;;;;;;;;;;;;;17.81;64.42;101160.68;2292701;77;50729;-74
2023/01/10 14:38:59;;;;;;;;;;;;;;;17.81;64.47;101161.19;2292961;77;52397;-75
2023/01/10 14:42:01;;;;;;;;;;;;;;;17.90;64.31;101166.87;2292601;77;51188;-76
2023/01/10 14:45:08;;;;;;;;;;;;;;;17.98;64.04;101157.53;2321303;75;51176;-75
2023/01/10 14:48:17;;;;;;;;;;;;;;;18.07;63.71;101148.98;2295236;76;52502;-75
2023/01/10 14:51:20;;;;;;;;;;;;;;;18.10;63.62;101159.86;2293350;75;51422;-76
2023/01/10 14:54:22;;;;;;;;;;;;;;;18.08;63.56;101160.52;2292577;77;50315;-75
2023/01/10 14:57:24;;;;;;;;;;;;;;;18.03;63.65;101171.25;2314779;75;51625;-75
2023/01/10 15:00:27;;;;;;;;;;;;;;;18.05;63.58;101175.92;2347976;75;52529;-75
2023/01/10 15:03:28;;;;;;;;;;;;;;;18.00;63.66;101158.17;2377398;74;51530;-75
2023/01/10 15:06:31;;;;;;;;;;;;;;;18.00;63.64;101170.73;2365745;75;51416;-75
2023/01/10 15:09:33;;;;;;;;;;;;;;;17.93;63.88;101163.02;2365693;73;50898;-74
2023/01/10 15:12:34;;;;;;;;;;;;;;;17.83;64.16;101160.52;2340251;74;51171;-76
2023/01/10 15:15:36;;;;;;;;;;;;;;;17.81;64.26;101162.52;2365621;74;50051;-75
2023/01/10 15:18:40;;;;;;;;;;;;;;;17.89;64.16;101161.19;2365730;75;51539;-76
2023/01/10 15:21:42;;;;;;;;;;;;;;;17.99;63.87;101155.17;2365490;74;50899;-75
2023/01/10 15:24:43;;;;;;;;;;;;;;;18.09;63.57;101162.22;2340238;75;51751;-74
2023/01/10 15:27:45;;;;;;;;;;;;;;;18.12;63.41;101164.05;2347545;74;51519;-76
2023/01/10 15:30:47;;;;;;;;;;;;;;;18.16;63.50;101171.23;2347302;74;50399;-75
2023/01/10 15:33:55;;;;;;;;;;;;;;;18.16;63.46;101168.08;2329531;76;50733;-75
2023/01/10 15:36:55;;;;;;;;;;;;;;;18.14;63.47;101166.06;2329024;76;22737;-76
2023/01/10 15:39:57;;;;;;;;;;;;;;;17.98;64.15;101172.25;2329976;76;50287;-75
2023/01/10 15:43:18;;;;;;;;;;;;;;;17.98;64.32;101173.59;2329667;76;51616;-75
2023/01/10 15:46:21;;;;;;;;;;;;;;;17.90;64.48;101172.22;2329949;76;51482;-77
2023/01/10 15:49:26;;;;;;;;;;;;;;;17.87;64.60;101177.91;2305411;76;52552;-76
2023/01/10 15:52:28;;;;;;;;;;;;;;;17.87;64.74;101186.45;2329687;76;50422;-76
2023/01/10 15:55:37;;;;;;;;;;;;;;;17.88;64.83;101184.09;2331763;76;50640;-77
2023/01/10 15:58:39;;;;;;;;;;;;;;;17.91;64.75;101184.62;2353943;74;51687;-78
2023/01/10 16:01:40;;;;;;;;;;;;;;;17.92;64.73;101186.28;2353082;73;50908;-79
2023/01/10 16:04:42;;;;;;;;;;;;;;;17.89;64.82;101188.47;2373167;74;51388;-78
2023/01/10 16:07:44;;;;;;;;;;;;;;;17.84;65.05;101183.09;2372274;74;51560;-76